createdAt,value
2017-08-19T00:00:22.791Z,17.10
2017-08-19T00:02:50.443Z,17.10
2017-08-19T00:05:18.111Z,17.10
2017-08-19T00:07:45.904Z,17.10
2017-08-19T00:10:13.559Z,17.10
2017-08-19T00:12:41.206Z,17.10
2017-08-19T00:15:08.983Z,17.20
2017-08-19T00:17:36.635Z,17.10
2017-08-19T00:20:04.386Z,17.10
2017-08-19T00:22:32.130Z,17.00
2017-08-19T00:24:59.895Z,17.00
2017-08-19T00:27:27.550Z,16.90
2017-08-19T00:29:55.194Z,16.80
2017-08-19T00:32:22.957Z,16.70
2017-08-19T00:34:50.611Z,16.70
2017-08-19T00:37:18.278Z,16.50
2017-08-19T00:39:46.043Z,16.60
2017-08-19T00:42:13.763Z,16.60
2017-08-19T00:44:42.225Z,16.60
2017-08-19T00:47:09.984Z,16.60
2017-08-19T00:49:37.795Z,16.60
2017-08-19T00:52:05.643Z,16.60
2017-08-19T00:54:34.222Z,16.60
2017-08-19T00:57:02.687Z,16.60
2017-08-19T00:59:31.133Z,16.60
2017-08-19T01:01:58.931Z,16.60
2017-08-19T01:04:27.406Z,16.60
2017-08-19T01:06:55.954Z,16.50
2017-08-19T01:09:23.727Z,16.40
2017-08-19T01:11:51.374Z,16.40
2017-08-19T01:14:19.033Z,16.30
2017-08-19T01:16:46.787Z,16.00
2017-08-19T01:19:14.504Z,16.10
2017-08-19T01:21:42.963Z,16.10
2017-08-19T01:24:11.533Z,16.10
2017-08-19T01:26:51.010Z,16.10
2017-08-19T01:29:18.758Z,15.90
2017-08-19T01:31:46.528Z,15.90
2017-08-19T01:34:14.175Z,15.90
2017-08-19T01:36:42.587Z,15.80
2017-08-19T01:39:10.343Z,15.80
2017-08-19T01:41:38.010Z,15.80
2017-08-19T01:44:05.656Z,16.10
2017-08-19T01:46:33.394Z,16.20
2017-08-19T01:49:01.819Z,16.00
2017-08-19T01:51:29.583Z,16.00
2017-08-19T01:53:57.230Z,15.70
2017-08-19T01:56:24.879Z,15.40
2017-08-19T01:58:52.622Z,15.30
2017-08-19T02:01:20.379Z,15.30
2017-08-19T02:03:48.824Z,15.60
2017-08-19T02:06:16.603Z,15.50
2017-08-19T02:08:45.014Z,15.80
2017-08-19T02:11:12.672Z,15.80
2017-08-19T02:13:40.443Z,15.80
2017-08-19T02:16:08.104Z,15.60
2017-08-19T02:18:35.759Z,15.60
2017-08-19T02:21:03.527Z,15.60
2017-08-19T02:23:31.175Z,15.50
2017-08-19T02:25:58.850Z,15.50
2017-08-19T02:28:26.599Z,15.40
2017-08-19T02:30:54.246Z,15.40
2017-08-19T02:33:21.987Z,15.40
2017-08-19T02:35:50.510Z,15.50
2017-08-19T02:38:18.171Z,15.50
2017-08-19T02:40:45.818Z,15.40
2017-08-19T02:43:13.563Z,15.30
2017-08-19T02:45:41.310Z,15.20
2017-08-19T02:48:09.824Z,15.30
2017-08-19T02:50:37.591Z,15.30
2017-08-19T02:53:05.255Z,15.40
2017-08-19T02:55:32.915Z,15.30
2017-08-19T02:58:00.662Z,15.30
2017-08-19T03:00:28.408Z,15.20
2017-08-19T03:02:56.058Z,15.20
2017-08-19T03:05:24.610Z,15.10
2017-08-19T03:07:52.267Z,15.00
2017-08-19T03:10:19.928Z,15.00
2017-08-19T03:12:47.667Z,15.10
2017-08-19T03:15:15.323Z,15.00
2017-08-19T03:17:43.063Z,15.00
2017-08-19T03:20:10.826Z,15.00
2017-08-19T03:22:38.492Z,14.90
2017-08-19T03:25:06.163Z,14.90
2017-08-19T03:27:33.923Z,14.90
2017-08-19T03:30:01.567Z,14.80
2017-08-19T03:32:29.216Z,14.80
2017-08-19T03:34:56.971Z,14.70
2017-08-19T03:37:24.627Z,14.60
2017-08-19T03:39:52.383Z,14.70
2017-08-19T03:42:20.036Z,14.80
2017-08-19T03:44:48.455Z,14.90
2017-08-19T03:47:16.202Z,14.90
2017-08-19T03:49:43.851Z,15.00
2017-08-19T03:52:11.600Z,15.00
2017-08-19T03:54:40.116Z,14.90
2017-08-19T03:57:07.894Z,14.90
2017-08-19T03:59:35.544Z,14.90
2017-08-19T04:02:03.209Z,14.80
2017-08-19T04:04:30.987Z,14.50
2017-08-19T04:06:58.669Z,14.50
2017-08-19T04:09:27.094Z,14.60
2017-08-19T04:11:54.875Z,14.60
2017-08-19T04:14:22.523Z,14.90
2017-08-19T04:16:50.175Z,14.90
2017-08-19T04:19:17.925Z,14.90
2017-08-19T04:21:45.756Z,14.80
2017-08-19T04:24:14.499Z,14.70
2017-08-19T04:26:45.303Z,14.70
2017-08-19T04:29:16.392Z,14.50
2017-08-19T04:31:45.822Z,14.60
2017-08-19T04:34:16.534Z,14.40
2017-08-19T04:36:46.009Z,14.10
2017-08-19T04:39:16.594Z,14.00
2017-08-19T04:41:45.546Z,14.20
2017-08-19T04:44:14.826Z,14.40
2017-08-19T04:46:43.243Z,14.50
2017-08-19T04:49:11.509Z,14.60
2017-08-19T04:51:41.181Z,14.60
2017-08-19T04:54:10.625Z,14.20
2017-08-19T04:56:38.435Z,14.20
2017-08-19T04:59:07.160Z,14.20
2017-08-19T05:01:36.488Z,14.20
2017-08-19T05:04:04.258Z,14.10
2017-08-19T05:06:31.898Z,14.20
2017-08-19T05:08:59.547Z,14.20
2017-08-19T05:11:28.084Z,14.00
2017-08-19T05:13:55.756Z,14.00
2017-08-19T05:16:23.404Z,13.80
2017-08-19T05:18:51.150Z,13.70
2017-08-19T05:21:18.924Z,13.80
2017-08-19T05:23:46.574Z,14.00
2017-08-19T05:26:14.241Z,13.90
2017-08-19T05:28:41.990Z,13.80
2017-08-19T05:31:09.729Z,13.60
2017-08-19T05:33:37.496Z,13.60
2017-08-19T05:36:05.154Z,13.80
2017-08-19T05:38:32.808Z,13.90
2017-08-19T05:41:00.563Z,13.90
2017-08-19T05:43:28.228Z,13.90
2017-08-19T05:45:55.991Z,14.20
2017-08-19T05:48:23.655Z,14.40
2017-08-19T05:50:51.320Z,14.40
2017-08-19T05:53:19.068Z,14.50
2017-08-19T05:55:46.715Z,14.50
2017-08-19T05:58:14.472Z,14.60
2017-08-19T06:00:42.899Z,14.90
2017-08-19T06:03:10.642Z,14.90
2017-08-19T06:05:38.406Z,15.10
2017-08-19T06:08:06.141Z,15.20
2017-08-19T06:10:33.787Z,15.20
2017-08-19T06:13:02.304Z,15.40
2017-08-19T06:15:30.052Z,15.30
2017-08-19T06:17:57.723Z,15.40
2017-08-19T06:20:25.471Z,15.60
2017-08-19T06:22:53.123Z,15.90
2017-08-19T06:25:20.873Z,15.90
2017-08-19T06:27:49.392Z,16.00
2017-08-19T06:30:17.055Z,16.00
2017-08-19T06:32:44.809Z,16.10
2017-08-19T06:35:12.507Z,16.40
2017-08-19T06:37:40.264Z,16.60
2017-08-19T06:40:07.915Z,16.70
2017-08-19T06:42:35.568Z,16.70
2017-08-19T06:45:03.321Z,16.80
2017-08-19T06:47:30.980Z,16.70
2017-08-19T06:49:58.747Z,16.70
2017-08-19T06:52:26.397Z,16.50
2017-08-19T06:54:54.046Z,16.60
2017-08-19T06:57:21.786Z,16.70
2017-08-19T06:59:49.435Z,16.70
2017-08-19T07:02:17.963Z,16.60
2017-08-19T07:04:45.616Z,16.60
2017-08-19T07:07:13.378Z,16.60
2017-08-19T07:09:41.027Z,16.80
2017-08-19T07:12:08.706Z,16.90
2017-08-19T07:14:36.447Z,16.90
2017-08-19T07:17:04.099Z,17.00
2017-08-19T07:19:31.859Z,16.90
2017-08-19T07:21:59.516Z,16.90
2017-08-19T07:24:27.163Z,16.80
2017-08-19T07:26:54.913Z,16.90
2017-08-19T07:29:23.435Z,17.00
2017-08-19T07:31:51.107Z,16.90
2017-08-19T07:34:18.867Z,16.90
2017-08-19T07:36:46.521Z,17.00
2017-08-19T07:39:14.188Z,17.30
2017-08-19T07:41:41.939Z,17.60
2017-08-19T07:44:09.611Z,17.70
2017-08-19T07:46:37.372Z,17.50
2017-08-19T07:49:05.023Z,17.80
2017-08-19T07:51:32.783Z,18.00
2017-08-19T07:54:00.434Z,18.20
2017-08-19T07:56:28.090Z,18.10
2017-08-19T07:58:55.873Z,17.70
2017-08-19T08:01:23.529Z,17.60
2017-08-19T08:03:51.198Z,17.70
2017-08-19T08:06:18.947Z,17.70
2017-08-19T08:08:46.606Z,17.90
2017-08-19T08:11:14.375Z,18.00
2017-08-19T08:13:42.019Z,18.00
2017-08-19T08:16:09.772Z,17.80
2017-08-19T08:18:37.418Z,18.30
2017-08-19T08:21:05.174Z,18.50
2017-08-19T08:23:32.831Z,18.80
2017-08-19T08:26:00.478Z,18.40
2017-08-19T08:28:29.000Z,18.10
2017-08-19T08:30:56.750Z,18.10
2017-08-19T08:33:24.399Z,18.50
2017-08-19T08:35:52.051Z,18.70
2017-08-19T08:38:19.795Z,19.00
2017-08-19T08:40:48.212Z,19.10
2017-08-19T08:43:15.971Z,19.10
2017-08-19T08:45:43.731Z,19.00
2017-08-19T08:48:11.383Z,19.00
2017-08-19T08:50:39.046Z,18.80
2017-08-19T08:53:06.826Z,18.60
2017-08-19T08:55:34.479Z,18.60
2017-08-19T08:58:02.154Z,18.80
2017-08-19T09:00:29.935Z,18.80
2017-08-19T09:02:57.587Z,19.10
2017-08-19T09:05:25.241Z,19.70
2017-08-19T09:07:53.031Z,20.00
2017-08-19T09:10:21.458Z,20.30
2017-08-19T09:12:49.118Z,20.30
2017-08-19T09:15:16.906Z,20.20
2017-08-19T09:17:44.579Z,20.30
2017-08-19T09:20:12.250Z,20.50
2017-08-19T09:22:40.783Z,20.30
2017-08-19T09:25:08.435Z,20.30
2017-08-19T09:27:36.080Z,20.10
2017-08-19T09:30:03.835Z,19.70
2017-08-19T09:32:31.675Z,19.50
2017-08-19T09:35:00.193Z,20.10
2017-08-19T09:37:27.844Z,20.10
2017-08-19T09:39:55.604Z,20.00
2017-08-19T09:42:23.256Z,19.50
2017-08-19T09:44:50.914Z,19.60
2017-08-19T09:47:18.675Z,20.00
2017-08-19T09:49:46.318Z,20.30
2017-08-19T09:52:13.975Z,20.50
2017-08-19T09:54:41.737Z,20.90
2017-08-19T09:57:10.254Z,21.30
2017-08-19T09:59:38.950Z,21.30
2017-08-19T10:02:06.718Z,21.30
2017-08-19T10:04:34.388Z,21.40
2017-08-19T10:07:02.059Z,21.40
2017-08-19T10:09:31.795Z,21.40
2017-08-19T10:11:59.446Z,21.50
2017-08-19T10:14:27.971Z,22.00
2017-08-19T10:16:55.635Z,22.00
2017-08-19T10:19:23.288Z,21.90
2017-08-19T10:21:51.038Z,22.00
2017-08-19T10:24:18.708Z,22.10
2017-08-19T10:26:46.466Z,22.30
2017-08-19T10:29:14.114Z,22.40
2017-08-19T10:31:41.775Z,22.50
2017-08-19T10:34:09.539Z,22.60
2017-08-19T10:36:37.202Z,22.70
2017-08-19T10:39:04.897Z,22.80
2017-08-19T10:41:32.689Z,22.80
2017-08-19T10:44:00.354Z,22.90
2017-08-19T10:46:28.123Z,23.00
2017-08-19T10:48:55.776Z,23.10
2017-08-19T10:51:23.427Z,22.80
2017-08-19T10:53:51.959Z,23.00
2017-08-19T10:56:19.628Z,23.00
2017-08-19T10:58:47.392Z,23.00
2017-08-19T11:01:15.053Z,22.90
2017-08-19T11:03:42.708Z,22.80
2017-08-19T11:06:10.464Z,22.60
2017-08-19T11:08:38.134Z,22.90
2017-08-19T11:11:05.792Z,23.00
2017-08-19T11:13:33.547Z,23.20
2017-08-19T11:16:01.303Z,23.20
2017-08-19T11:18:28.977Z,23.20
2017-08-19T11:20:56.737Z,23.40
2017-08-19T11:23:24.496Z,23.60
2017-08-19T11:25:52.150Z,24.00
2017-08-19T11:28:19.907Z,24.10
2017-08-19T11:30:47.607Z,24.20
2017-08-19T11:33:15.305Z,24.20
2017-08-19T11:35:43.232Z,24.20
2017-08-19T11:38:11.567Z,23.70
2017-08-19T11:40:39.332Z,23.70
2017-08-19T11:43:06.990Z,23.90
2017-08-19T11:45:34.642Z,24.10
2017-08-19T11:48:02.406Z,24.20
2017-08-19T11:50:30.060Z,24.50
2017-08-19T11:52:57.702Z,24.50
2017-08-19T11:55:25.451Z,24.20
2017-08-19T11:57:53.099Z,24.30
2017-08-19T12:00:21.626Z,24.80
2017-08-19T12:02:49.284Z,24.70
2017-08-19T12:05:16.934Z,24.30
2017-08-19T12:07:44.691Z,24.50
2017-08-19T12:10:12.443Z,24.60
2017-08-19T12:12:40.092Z,24.30
2017-08-19T12:15:07.852Z,24.20
2017-08-19T12:17:35.501Z,23.90
2017-08-19T12:20:03.179Z,23.50
2017-08-19T12:22:30.932Z,23.60
2017-08-19T12:24:58.678Z,23.80
2017-08-19T12:27:26.457Z,23.80
2017-08-19T12:29:54.108Z,23.90
2017-08-19T12:32:22.521Z,23.10
2017-08-19T12:34:50.293Z,23.10
2017-08-19T12:37:17.935Z,22.90
2017-08-19T12:39:45.589Z,22.80
2017-08-19T12:42:13.330Z,22.90
2017-08-19T12:44:41.748Z,22.80
2017-08-19T12:47:09.511Z,22.80
2017-08-19T12:49:37.179Z,22.60
2017-08-19T12:52:04.831Z,22.40
2017-08-19T12:54:32.623Z,22.30
2017-08-19T12:57:00.279Z,22.40
2017-08-19T12:59:27.955Z,22.40
2017-08-19T13:01:56.465Z,22.40
2017-08-19T13:04:24.119Z,22.40
2017-08-19T13:06:51.871Z,22.70
2017-08-19T13:09:19.620Z,23.30
2017-08-19T13:11:47.278Z,23.40
2017-08-19T13:14:15.702Z,23.10
2017-08-19T13:16:43.451Z,23.10
2017-08-19T13:19:11.203Z,22.60
2017-08-19T13:21:38.852Z,22.60
2017-08-19T13:24:06.603Z,21.70
2017-08-19T13:26:34.366Z,21.30
2017-08-19T13:29:02.014Z,21.20
2017-08-19T13:31:30.439Z,22.00
2017-08-19T13:33:58.183Z,21.90
2017-08-19T13:36:25.844Z,22.60
2017-08-19T13:38:53.497Z,22.70
2017-08-19T13:41:21.304Z,22.90
2017-08-19T13:43:48.960Z,23.30
2017-08-19T13:46:16.606Z,23.40
2017-08-19T13:48:44.363Z,23.30
2017-08-19T13:51:12.118Z,23.10
2017-08-19T13:53:39.865Z,22.90
2017-08-19T13:56:07.533Z,23.00
2017-08-19T13:58:35.178Z,22.80
2017-08-19T14:01:02.930Z,23.30
2017-08-19T14:03:31.346Z,24.00
2017-08-19T14:05:59.006Z,24.00
2017-08-19T14:08:26.752Z,23.60
2017-08-19T14:10:54.407Z,22.80
2017-08-19T14:13:22.156Z,22.60
2017-08-19T14:15:49.902Z,22.80
2017-08-19T14:18:17.550Z,23.00
2017-08-19T14:20:45.295Z,23.10
2017-08-19T14:23:13.051Z,22.80
2017-08-19T14:25:40.705Z,22.40
2017-08-19T14:28:08.474Z,22.60
2017-08-19T14:30:36.131Z,22.60
2017-08-19T14:33:03.803Z,22.70
2017-08-19T14:35:31.560Z,22.50
2017-08-19T14:37:59.211Z,22.90
2017-08-19T14:40:26.967Z,23.50
2017-08-19T14:42:54.625Z,23.80
2017-08-19T14:45:22.280Z,23.80
2017-08-19T14:47:50.035Z,23.50
2017-08-19T14:50:17.800Z,22.70
2017-08-19T14:52:45.447Z,22.60
2017-08-19T14:55:13.095Z,22.90
2017-08-19T14:57:41.133Z,23.00
2017-08-19T15:00:08.782Z,23.50
2017-08-19T15:02:37.281Z,24.00
2017-08-19T15:05:05.030Z,23.80
2017-08-19T15:07:32.693Z,23.50
2017-08-19T15:10:00.453Z,23.80
2017-08-19T15:12:28.207Z,24.00
2017-08-19T15:14:55.867Z,23.60
2017-08-19T15:17:23.623Z,23.60
2017-08-19T15:19:51.270Z,23.80
2017-08-19T15:22:19.011Z,23.60
2017-08-19T15:24:46.756Z,23.70
2017-08-19T15:27:14.867Z,23.50
2017-08-19T15:29:42.523Z,23.60
2017-08-19T15:32:10.195Z,23.80
2017-08-19T15:34:37.960Z,23.90
2017-08-19T15:37:05.616Z,24.20
2017-08-19T15:39:33.320Z,24.30
2017-08-19T15:42:01.069Z,24.80
2017-08-19T15:44:28.730Z,25.10
2017-08-19T15:46:56.487Z,25.30
2017-08-19T15:49:24.235Z,25.60
2017-08-19T15:51:52.664Z,24.90
2017-08-19T15:54:20.415Z,24.80
2017-08-19T15:56:48.073Z,24.00
2017-08-19T15:59:15.856Z,23.80
2017-08-19T16:01:43.499Z,23.50
2017-08-19T16:04:11.152Z,23.10
2017-08-19T16:06:38.903Z,23.00
2017-08-19T16:09:06.674Z,22.90
2017-08-19T16:11:34.332Z,22.80
2017-08-19T16:14:02.087Z,22.80
2017-08-19T16:16:29.784Z,22.80
2017-08-19T16:18:57.548Z,22.60
2017-08-19T16:21:25.195Z,22.40
2017-08-19T16:23:52.849Z,22.20
2017-08-19T16:26:20.617Z,22.00
2017-08-19T16:28:48.379Z,22.00
2017-08-19T16:31:16.023Z,21.80
2017-08-19T16:33:43.777Z,21.90
2017-08-19T16:36:11.430Z,21.90
2017-08-19T16:38:39.191Z,21.80
2017-08-19T16:41:06.856Z,21.70
2017-08-19T16:43:34.519Z,21.40
2017-08-19T16:46:02.268Z,21.40
2017-08-19T16:48:29.948Z,21.40
2017-08-19T16:50:57.716Z,21.20
2017-08-19T16:53:25.366Z,20.90
2017-08-19T16:55:53.023Z,20.80
2017-08-19T16:58:20.776Z,20.90
2017-08-19T17:00:48.533Z,20.70
2017-08-19T17:03:16.216Z,20.70
2017-08-19T17:05:43.971Z,20.90
2017-08-19T17:08:11.624Z,20.70
2017-08-19T17:10:39.291Z,20.80
2017-08-19T17:13:07.070Z,20.70
2017-08-19T17:15:34.827Z,20.90
2017-08-19T17:18:02.476Z,20.90
2017-08-19T17:20:30.131Z,20.50
2017-08-19T17:22:57.891Z,20.60
2017-08-19T17:25:25.549Z,20.70
2017-08-19T17:27:53.195Z,20.50
2017-08-19T17:30:20.943Z,20.30
2017-08-19T17:32:48.716Z,20.40
2017-08-19T17:35:16.401Z,20.40
2017-08-19T17:37:44.051Z,20.20
2017-08-19T17:40:11.843Z,20.10
2017-08-19T17:42:39.492Z,20.10
2017-08-19T17:45:07.184Z,20.10
2017-08-19T17:47:35.724Z,20.20
2017-08-19T17:50:03.527Z,20.20
2017-08-19T17:52:31.939Z,20.10
2017-08-19T17:54:59.592Z,20.10
2017-08-19T17:57:27.423Z,20.00
2017-08-19T17:59:55.848Z,20.20
2017-08-19T18:02:23.599Z,20.20
2017-08-19T18:04:51.250Z,20.00
2017-08-19T18:07:19.000Z,20.10
2017-08-19T18:09:46.754Z,20.00
2017-08-19T18:12:14.402Z,19.80
2017-08-19T18:14:42.056Z,19.70
2017-08-19T18:17:09.799Z,19.60
2017-08-19T18:19:37.443Z,19.50
2017-08-19T18:22:05.204Z,19.30
2017-08-19T18:24:32.949Z,19.30
2017-08-19T18:27:00.607Z,19.30
2017-08-19T18:29:28.387Z,19.30
2017-08-19T18:31:56.163Z,19.20
2017-08-19T18:34:23.828Z,18.90
2017-08-19T18:36:51.479Z,18.70
2017-08-19T18:39:19.251Z,18.80
2017-08-19T18:41:47.001Z,18.80
2017-08-19T18:44:14.754Z,19.00
2017-08-19T18:46:42.501Z,19.00
2017-08-19T18:49:10.264Z,19.00
2017-08-19T18:51:37.920Z,18.80
2017-08-19T18:54:05.692Z,18.70
2017-08-19T18:56:33.339Z,18.30
2017-08-19T18:59:01.000Z,18.10
2017-08-19T19:01:28.762Z,18.20
2017-08-19T19:03:56.424Z,18.30
2017-08-19T19:06:24.081Z,17.70
2017-08-19T19:08:51.837Z,18.00
2017-08-19T19:11:19.508Z,18.00
2017-08-19T19:13:47.251Z,17.90
2017-08-19T19:16:15.031Z,18.00
2017-08-19T19:18:42.692Z,17.80
2017-08-19T19:21:10.356Z,17.50
2017-08-19T19:23:38.135Z,17.50
2017-08-19T19:26:05.788Z,17.40
2017-08-19T19:28:33.450Z,17.20
2017-08-19T19:31:01.213Z,17.20
2017-08-19T19:33:28.862Z,17.20
2017-08-19T19:35:56.628Z,17.20
2017-08-19T19:38:24.275Z,17.10
2017-08-19T19:40:51.923Z,17.00
2017-08-19T19:43:19.728Z,16.90
2017-08-19T19:45:47.388Z,16.80
2017-08-19T19:48:15.056Z,17.00
2017-08-19T19:50:43.575Z,16.80
2017-08-19T19:53:11.319Z,16.70
2017-08-19T19:55:39.742Z,17.00
2017-08-19T19:58:07.514Z,16.90
2017-08-19T20:00:35.163Z,17.00
2017-08-19T20:03:02.815Z,17.10
2017-08-19T20:05:30.560Z,17.20
2017-08-19T20:07:58.230Z,17.30
2017-08-19T20:10:25.977Z,17.00
2017-08-19T20:12:53.635Z,17.20
2017-08-19T20:15:21.421Z,17.20
2017-08-19T20:17:49.099Z,17.10
2017-08-19T20:20:16.863Z,17.00
2017-08-19T20:22:44.561Z,16.90
2017-08-19T20:25:13.134Z,17.00
2017-08-19T20:27:41.568Z,17.00
2017-08-19T20:30:09.218Z,16.90
2017-08-19T20:32:36.995Z,16.90
2017-08-19T20:35:04.653Z,17.10
2017-08-19T20:37:32.336Z,17.20
2017-08-19T20:40:00.079Z,17.00
2017-08-19T20:42:27.832Z,16.90
2017-08-19T20:44:55.482Z,16.90
2017-08-19T20:47:23.127Z,16.80
2017-08-19T20:49:50.927Z,16.60
2017-08-19T20:52:18.576Z,16.60
2017-08-19T20:54:46.227Z,16.40
2017-08-19T20:57:13.980Z,16.20
2017-08-19T20:59:41.730Z,16.00
2017-08-19T21:02:09.471Z,15.90
2017-08-19T21:04:38.936Z,15.90
2017-08-19T21:07:06.594Z,15.80
2017-08-19T21:09:34.251Z,15.70
2017-08-19T21:12:02.042Z,15.70
2017-08-19T21:14:30.464Z,15.60
2017-08-19T21:16:58.124Z,15.60
2017-08-19T21:19:25.943Z,15.50
2017-08-19T21:21:54.497Z,15.50
2017-08-19T21:24:22.155Z,15.50
2017-08-19T21:26:49.906Z,15.50
2017-08-19T21:29:17.662Z,15.50
2017-08-19T21:31:45.316Z,15.50
2017-08-19T21:34:13.071Z,15.50
2017-08-19T21:36:40.859Z,15.50
2017-08-19T21:39:08.522Z,15.60
2017-08-19T21:41:36.182Z,15.40
2017-08-19T21:44:03.942Z,15.40
2017-08-19T21:46:31.704Z,15.50
2017-08-19T21:48:59.365Z,15.60
2017-08-19T21:51:27.023Z,15.70
2017-08-19T21:53:54.784Z,15.70
2017-08-19T21:56:22.539Z,15.50
2017-08-19T21:58:50.189Z,15.50
2017-08-19T22:01:17.867Z,15.50
2017-08-19T22:03:45.623Z,15.60
2017-08-19T22:06:13.290Z,15.40
2017-08-19T22:08:40.939Z,15.50
2017-08-19T22:11:08.689Z,15.50
2017-08-19T22:13:36.348Z,15.40
2017-08-19T22:16:04.130Z,15.60
2017-08-19T22:18:31.919Z,15.50
2017-08-19T22:20:59.576Z,15.40
2017-08-19T22:23:27.995Z,15.60
2017-08-19T22:25:55.768Z,15.60
2017-08-19T22:28:23.415Z,15.70
2017-08-19T22:30:51.155Z,15.60
2017-08-19T22:33:18.802Z,15.50
2017-08-19T22:35:46.560Z,15.40
2017-08-19T22:38:14.211Z,15.30
2017-08-19T22:40:42.634Z,15.70
2017-08-19T22:43:10.378Z,15.70
2017-08-19T22:45:38.128Z,15.80
2017-08-19T22:48:05.893Z,15.80
2017-08-19T22:50:33.545Z,15.80
2017-08-19T22:53:01.203Z,15.90
2017-08-19T22:55:28.999Z,15.90
2017-08-19T22:57:56.656Z,15.90
2017-08-19T23:00:24.302Z,15.90
2017-08-19T23:02:52.062Z,15.90
2017-08-19T23:05:19.714Z,15.70
2017-08-19T23:07:47.366Z,15.80
2017-08-19T23:10:15.111Z,15.70
2017-08-19T23:12:43.523Z,15.70
2017-08-19T23:15:11.275Z,15.70
2017-08-19T23:17:38.934Z,15.60
2017-08-19T23:20:06.590Z,15.40
2017-08-19T23:22:34.393Z,15.20
2017-08-19T23:25:02.055Z,15.10
2017-08-19T23:27:29.712Z,15.30
2017-08-19T23:29:57.467Z,15.30
2017-08-19T23:32:25.119Z,15.30
2017-08-19T23:34:52.869Z,15.40
2017-08-19T23:37:20.630Z,15.40
2017-08-19T23:39:48.379Z,15.50
2017-08-19T23:42:16.154Z,15.50
2017-08-19T23:44:43.798Z,15.50
2017-08-19T23:47:11.462Z,15.60
2017-08-19T23:49:39.234Z,15.50
2017-08-19T23:52:06.894Z,15.40
2017-08-19T23:54:34.547Z,15.40
2017-08-19T23:57:02.302Z,15.30
2017-08-19T23:59:29.951Z,15.00
